sensor_id;sensor_type;location;lat;lon;timestamp;pressure;altitude;pressure_sealevel;temperature;humidity
43824;BME280;29470;53.550;9.926;2023-07-31T00:04:43;100420.09;;;20.40;73.42
43824;BME280;29470;53.550;9.926;2023-07-31T00:09:46;100407.03;;;20.05;74.11
43824;BME280;29470;53.550;9.926;2023-07-31T00:14:50;100410.34;;;19.97;72.82
43824;BME280;29470;53.550;9.926;2023-07-31T00:19:53;100406.03;;;19.99;73.92
43824;BME280;29470;53.550;9.926;2023-07-31T00:24:56;100410.53;;;20.05;72.76
43824;BME280;29470;53.550;9.926;2023-07-31T00:30:00;100392.44;;;20.16;70.68
43824;BME280;29470;53.550;9.926;2023-07-31T00:35:03;100387.56;;;20.31;69.58
43824;BME280;29470;53.550;9.926;2023-07-31T00:40:07;100392.75;;;20.30;70.18
43824;BME280;29470;53.550;9.926;2023-07-31T00:45:12;100397.16;;;19.94;71.09
43824;BME280;29470;53.550;9.926;2023-07-31T00:50:15;100379.47;;;19.88;71.05
43824;BME280;29470;53.550;9.926;2023-07-31T00:55:18;100375.47;;;20.01;71.19
43824;BME280;29470;53.550;9.926;2023-07-31T01:00:23;100382.03;;;20.21;71.17
43824;BME280;29470;53.550;9.926;2023-07-31T01:05:33;100363.13;;;19.99;70.62
43824;BME280;29470;53.550;9.926;2023-07-31T01:10:46;100365.19;;;19.77;73.05
43824;BME280;29470;53.550;9.926;2023-07-31T01:15:54;100368.31;;;19.30;75.25
43824;BME280;29470;53.550;9.926;2023-07-31T01:21:03;100373.22;;;19.50;75.52
43824;BME280;29470;53.550;9.926;2023-07-31T01:26:15;100361.38;;;19.66;75.34
43824;BME280;29470;53.550;9.926;2023-07-31T01:31:23;100354.00;;;19.84;75.29
43824;BME280;29470;53.550;9.926;2023-07-31T01:36:28;100345.59;;;19.98;75.11
43824;BME280;29470;53.550;9.926;2023-07-31T01:41:33;100344.09;;;19.72;76.47
43824;BME280;29470;53.550;9.926;2023-07-31T01:46:36;100344.81;;;20.02;75.14
43824;BME280;29470;53.550;9.926;2023-07-31T01:51:39;100333.75;;;20.14;73.98
43824;BME280;29470;53.550;9.926;2023-07-31T01:56:44;100319.63;;;20.09;74.75
43824;BME280;29470;53.550;9.926;2023-07-31T02:01:46;100323.25;;;19.79;77.29
43824;BME280;29470;53.550;9.926;2023-07-31T02:06:50;100316.03;;;20.05;75.27
43824;BME280;29470;53.550;9.926;2023-07-31T02:11:54;100311.63;;;20.04;76.49
43824;BME280;29470;53.550;9.926;2023-07-31T02:16:57;100306.31;;;20.01;76.71
43824;BME280;29470;53.550;9.926;2023-07-31T02:22:00;100306.66;;;20.15;76.26
43824;BME280;29470;53.550;9.926;2023-07-31T02:27:05;100303.09;;;20.13;75.99
43824;BME280;29470;53.550;9.926;2023-07-31T02:32:08;100294.31;;;20.12;75.95
43824;BME280;29470;53.550;9.926;2023-07-31T02:37:11;100302.25;;;19.79;78.80
43824;BME280;29470;53.550;9.926;2023-07-31T02:42:15;100296.94;;;20.11;76.47
43824;BME280;29470;53.550;9.926;2023-07-31T02:47:18;100295.88;;;20.02;77.02
43824;BME280;29470;53.550;9.926;2023-07-31T02:52:21;100288.06;;;20.06;77.17
43824;BME280;29470;53.550;9.926;2023-07-31T02:57:25;100280.13;;;20.04;77.96
43824;BME280;29470;53.550;9.926;2023-07-31T03:02:28;100285.84;;;19.87;79.56
43824;BME280;29470;53.550;9.926;2023-07-31T03:07:31;100270.63;;;20.09;77.63
43824;BME280;29470;53.550;9.926;2023-07-31T03:12:35;100271.00;;;19.88;79.15
43824;BME280;29470;53.550;9.926;2023-07-31T03:17:38;100262.06;;;19.81;79.14
43824;BME280;29470;53.550;9.926;2023-07-31T03:22:41;100260.75;;;19.62;80.37
43824;BME280;29470;53.550;9.926;2023-07-31T03:27:46;100261.41;;;19.53;82.49
43824;BME280;29470;53.550;9.926;2023-07-31T03:32:49;100252.69;;;19.90;80.26
43824;BME280;29470;53.550;9.926;2023-07-31T03:37:52;100251.81;;;19.89;80.06
43824;BME280;29470;53.550;9.926;2023-07-31T03:42:56;100254.28;;;19.84;79.59
43824;BME280;29470;53.550;9.926;2023-07-31T03:47:59;100250.59;;;20.13;78.27
43824;BME280;29470;53.550;9.926;2023-07-31T03:53:02;100250.97;;;19.90;79.46
43824;BME280;29470;53.550;9.926;2023-07-31T03:58:07;100260.84;;;20.02;78.12
43824;BME280;29470;53.550;9.926;2023-07-31T04:03:10;100260.97;;;20.07;79.44
43824;BME280;29470;53.550;9.926;2023-07-31T04:08:13;100264.09;;;20.30;78.81
43824;BME280;29470;53.550;9.926;2023-07-31T04:13:17;100250.09;;;20.29;78.05
43824;BME280;29470;53.550;9.926;2023-07-31T04:18:21;100247.84;;;20.08;79.45
43824;BME280;29470;53.550;9.926;2023-07-31T04:23:24;100246.81;;;20.41;79.59
43824;BME280;29470;53.550;9.926;2023-07-31T04:28:28;100238.81;;;20.35;79.90
43824;BME280;29470;53.550;9.926;2023-07-31T04:33:33;100232.50;;;20.25;79.40
43824;BME280;29470;53.550;9.926;2023-07-31T04:38:36;100242.88;;;20.21;83.02
43824;BME280;29470;53.550;9.926;2023-07-31T04:43:40;100226.53;;;20.36;80.98
43824;BME280;29470;53.550;9.926;2023-07-31T04:48:43;100226.97;;;19.76;84.36
43824;BME280;29470;53.550;9.926;2023-07-31T04:53:46;100225.47;;;19.86;83.16
43824;BME280;29470;53.550;9.926;2023-07-31T04:58:50;100219.75;;;20.02;83.39
43824;BME280;29470;53.550;9.926;2023-07-31T05:03:53;100222.66;;;20.16;81.41
43824;BME280;29470;53.550;9.926;2023-07-31T05:08:56;100240.22;;;19.82;83.91
43824;BME280;29470;53.550;9.926;2023-07-31T05:14:00;100232.25;;;20.14;83.82
43824;BME280;29470;53.550;9.926;2023-07-31T05:19:03;100234.25;;;19.88;85.47
43824;BME280;29470;53.550;9.926;2023-07-31T05:24:06;100226.25;;;20.20;83.58
43824;BME280;29470;53.550;9.926;2023-07-31T05:29:10;100228.66;;;19.72;84.48
43824;BME280;29470;53.550;9.926;2023-07-31T05:34:15;100228.91;;;20.22;83.92
43824;BME280;29470;53.550;9.926;2023-07-31T05:39:21;100225.72;;;19.97;85.49
43824;BME280;29470;53.550;9.926;2023-07-31T05:44:25;100218.31;;;20.19;85.55
43824;BME280;29470;53.550;9.926;2023-07-31T05:49:28;100208.06;;;20.29;83.74
43824;BME280;29470;53.550;9.926;2023-07-31T05:54:31;100197.78;;;20.42;84.22
43824;BME280;29470;53.550;9.926;2023-07-31T05:59:36;100196.31;;;20.55;81.87
43824;BME280;29470;53.550;9.926;2023-07-31T06:04:39;100190.63;;;20.35;84.52
43824;BME280;29470;53.550;9.926;2023-07-31T06:09:42;100192.78;;;20.54;82.64
43824;BME280;29470;53.550;9.926;2023-07-31T06:14:46;100190.63;;;20.35;83.25
43824;BME280;29470;53.550;9.926;2023-07-31T06:19:49;100184.03;;;20.55;81.66
43824;BME280;29470;53.550;9.926;2023-07-31T06:24:52;100191.84;;;20.52;83.34
43824;BME280;29470;53.550;9.926;2023-07-31T06:29:58;100187.28;;;20.85;81.50
43824;BME280;29470;53.550;9.926;2023-07-31T06:35:01;100191.84;;;20.52;82.29
43824;BME280;29470;53.550;9.926;2023-07-31T06:40:04;100189.00;;;20.40;83.50
43824;BME280;29470;53.550;9.926;2023-07-31T06:45:11;100182.84;;;20.82;82.59
43824;BME280;29470;53.550;9.926;2023-07-31T06:50:14;100186.94;;;20.69;82.10
43824;BME280;29470;53.550;9.926;2023-07-31T06:55:18;100189.91;;;20.85;81.47
43824;BME280;29470;53.550;9.926;2023-07-31T07:00:23;100195.16;;;20.85;80.81
43824;BME280;29470;53.550;9.926;2023-07-31T07:05:26;100189.28;;;20.98;79.94
43824;BME280;29470;53.550;9.926;2023-07-31T07:10:29;100192.06;;;21.09;81.45
43824;BME280;29470;53.550;9.926;2023-07-31T07:15:33;100186.53;;;20.94;83.79
43824;BME280;29470;53.550;9.926;2023-07-31T07:20:36;100183.47;;;20.26;85.15
43824;BME280;29470;53.550;9.926;2023-07-31T07:25:39;100189.59;;;20.69;85.92
43824;BME280;29470;53.550;9.926;2023-07-31T07:30:43;100181.72;;;20.71;85.98
43824;BME280;29470;53.550;9.926;2023-07-31T07:35:46;100180.00;;;21.21;84.20
43824;BME280;29470;53.550;9.926;2023-07-31T07:40:50;100180.53;;;20.99;84.43
43824;BME280;29470;53.550;9.926;2023-07-31T07:45:56;100179.06;;;21.17;84.74
43824;BME280;29470;53.550;9.926;2023-07-31T07:50:59;100184.81;;;20.96;84.33
43824;BME280;29470;53.550;9.926;2023-07-31T07:56:02;100169.22;;;21.05;83.49
43824;BME280;29470;53.550;9.926;2023-07-31T08:01:06;100154.00;;;21.99;79.44
43824;BME280;29470;53.550;9.926;2023-07-31T08:06:10;100147.31;;;22.29;77.95
43824;BME280;29470;53.550;9.926;2023-07-31T08:11:13;100145.81;;;22.48;78.74
43824;BME280;29470;53.550;9.926;2023-07-31T08:16:17;100152.69;;;22.39;75.39
43824;BME280;29470;53.550;9.926;2023-07-31T08:21:21;100137.44;;;22.08;79.05
43824;BME280;29470;53.550;9.926;2023-07-31T08:26:24;100123.31;;;22.82;74.95
43824;BME280;29470;53.550;9.926;2023-07-31T08:31:28;100119.66;;;22.67;74.48
43824;BME280;29470;53.550;9.926;2023-07-31T08:36:31;100113.44;;;22.60;76.37
43824;BME280;29470;53.550;9.926;2023-07-31T08:41:37;100106.84;;;23.09;74.44
43824;BME280;29470;53.550;9.926;2023-07-31T08:46:42;100101.56;;;23.09;72.43
43824;BME280;29470;53.550;9.926;2023-07-31T08:51:46;100100.56;;;22.94;73.49
43824;BME280;29470;53.550;9.926;2023-07-31T08:56:53;100095.78;;;23.60;70.21
43824;BME280;29470;53.550;9.926;2023-07-31T09:02:00;100100.59;;;22.98;73.56
43824;BME280;29470;53.550;9.926;2023-07-31T09:07:06;100097.97;;;23.02;73.04
43824;BME280;29470;53.550;9.926;2023-07-31T09:12:10;100100.16;;;22.49;76.36
43824;BME280;29470;53.550;9.926;2023-07-31T09:17:14;100100.53;;;22.90;75.17
43824;BME280;29470;53.550;9.926;2023-07-31T09:22:31;100084.84;;;23.12;71.48
43824;BME280;29470;53.550;9.926;2023-07-31T09:27:46;100075.84;;;22.78;73.26
43824;BME280;29470;53.550;9.926;2023-07-31T09:32:59;100079.13;;;22.53;74.65
43824;BME280;29470;53.550;9.926;2023-07-31T09:38:05;100061.38;;;23.46;71.94
43824;BME280;29470;53.550;9.926;2023-07-31T09:43:09;100053.38;;;23.33;71.83
43824;BME280;29470;53.550;9.926;2023-07-31T09:48:15;100050.25;;;24.15;67.95
43824;BME280;29470;53.550;9.926;2023-07-31T09:53:18;100038.75;;;24.08;67.15
43824;BME280;29470;53.550;9.926;2023-07-31T09:58:21;100042.13;;;23.67;72.35
43824;BME280;29470;53.550;9.926;2023-07-31T10:03:26;100032.31;;;23.43;70.09
43824;BME280;29470;53.550;9.926;2023-07-31T10:08:30;100042.72;;;23.21;73.10
43824;BME280;29470;53.550;9.926;2023-07-31T10:13:35;100032.97;;;23.10;71.78
43824;BME280;29470;53.550;9.926;2023-07-31T10:18:39;100036.13;;;22.61;73.07
43824;BME280;29470;53.550;9.926;2023-07-31T10:23:43;100036.22;;;22.71;74.82
43824;BME280;29470;53.550;9.926;2023-07-31T10:28:46;100018.25;;;23.44;70.91
43824;BME280;29470;53.550;9.926;2023-07-31T10:33:52;100024.00;;;22.79;74.37
43824;BME280;29470;53.550;9.926;2023-07-31T10:38:55;100027.06;;;22.31;75.32
43824;BME280;29470;53.550;9.926;2023-07-31T10:43:59;100031.41;;;20.89;82.30
43824;BME280;29470;53.550;9.926;2023-07-31T10:49:04;100022.69;;;22.32;78.33
43824;BME280;29470;53.550;9.926;2023-07-31T10:54:11;100014.41;;;21.95;79.90
43824;BME280;29470;53.550;9.926;2023-07-31T10:59:14;100006.59;;;22.04;80.21
43824;BME280;29470;53.550;9.926;2023-07-31T11:04:24;100005.38;;;21.72;83.04
43824;BME280;29470;53.550;9.926;2023-07-31T11:09:28;99995.38;;;22.25;79.03
43824;BME280;29470;53.550;9.926;2023-07-31T11:14:31;99999.59;;;22.04;81.89
43824;BME280;29470;53.550;9.926;2023-07-31T11:19:37;99997.25;;;22.39;81.22
43824;BME280;29470;53.550;9.926;2023-07-31T11:24:40;99996.88;;;21.97;82.74
43824;BME280;29470;53.550;9.926;2023-07-31T11:29:45;99990.97;;;22.19;83.25
43824;BME280;29470;53.550;9.926;2023-07-31T11:34:53;99996.66;;;21.78;84.58
43824;BME280;29470;53.550;9.926;2023-07-31T11:39:59;99995.09;;;21.96;86.51
43824;BME280;29470;53.550;9.926;2023-07-31T11:45:03;99994.88;;;21.74;87.50
43824;BME280;29470;53.550;9.926;2023-07-31T11:50:10;99993.41;;;22.01;86.76
43824;BME280;29470;53.550;9.926;2023-07-31T11:55:14;99986.31;;;21.92;82.99
43824;BME280;29470;53.550;9.926;2023-07-31T12:00:19;99985.50;;;22.01;83.61
43824;BME280;29470;53.550;9.926;2023-07-31T12:05:23;99979.44;;;22.10;81.24
43824;BME280;29470;53.550;9.926;2023-07-31T12:10:28;99990.28;;;21.60;81.91
43824;BME280;29470;53.550;9.926;2023-07-31T12:15:33;99987.53;;;21.51;81.89
43824;BME280;29470;53.550;9.926;2023-07-31T12:20:42;99980.28;;;21.31;83.55
43824;BME280;29470;53.550;9.926;2023-07-31T12:25:45;99977.81;;;21.42;83.92
43824;BME280;29470;53.550;9.926;2023-07-31T12:30:49;99953.91;;;21.99;79.53
43824;BME280;29470;53.550;9.926;2023-07-31T12:35:53;99955.38;;;21.72;81.55
43824;BME280;29470;53.550;9.926;2023-07-31T12:40:56;99945.47;;;21.54;84.08
43824;BME280;29470;53.550;9.926;2023-07-31T12:45:59;99947.53;;;21.77;84.70
43824;BME280;29470;53.550;9.926;2023-07-31T12:51:04;99937.38;;;22.14;84.20
43824;BME280;29470;53.550;9.926;2023-07-31T12:56:08;99935.72;;;22.26;84.80
43824;BME280;29470;53.550;9.926;2023-07-31T13:01:11;99937.81;;;21.70;84.24
43824;BME280;29470;53.550;9.926;2023-07-31T13:06:15;99931.13;;;21.27;85.34
43824;BME280;29470;53.550;9.926;2023-07-31T13:11:18;99930.28;;;21.28;86.98
43824;BME280;29470;53.550;9.926;2023-07-31T13:16:21;99918.69;;;21.12;87.84
43824;BME280;29470;53.550;9.926;2023-07-31T13:21:25;99919.06;;;21.45;88.55
43824;BME280;29470;53.550;9.926;2023-07-31T13:26:28;99917.84;;;21.90;87.15
43824;BME280;29470;53.550;9.926;2023-07-31T13:31:31;99897.03;;;22.23;86.22
43824;BME280;29470;53.550;9.926;2023-07-31T13:36:35;99894.38;;;22.20;85.59
43824;BME280;29470;53.550;9.926;2023-07-31T13:41:39;99886.88;;;22.73;85.20
43824;BME280;29470;53.550;9.926;2023-07-31T13:46:42;99896.72;;;21.83;90.03
43824;BME280;29470;53.550;9.926;2023-07-31T13:51:46;99891.00;;;22.36;90.51
43824;BME280;29470;53.550;9.926;2023-07-31T13:56:49;99888.50;;;22.52;90.53
43824;BME280;29470;53.550;9.926;2023-07-31T14:01:52;99885.78;;;22.41;93.73
43824;BME280;29470;53.550;9.926;2023-07-31T14:06:56;99872.13;;;23.09;89.65
43824;BME280;29470;53.550;9.926;2023-07-31T14:18:33;99872.06;;;22.95;92.64
43824;BME280;29470;53.550;9.926;2023-07-31T14:23:55;99860.56;;;22.77;92.79
43824;BME280;29470;53.550;9.926;2023-07-31T14:29:03;99849.97;;;22.68;94.79
43824;BME280;29470;53.550;9.926;2023-07-31T14:41:14;99853.28;;;22.44;95.65
43824;BME280;29470;53.550;9.926;2023-07-31T14:46:20;99866.66;;;22.69;94.12
43824;BME280;29470;53.550;9.926;2023-07-31T14:51:23;99832.50;;;22.93;93.02
43824;BME280;29470;53.550;9.926;2023-07-31T14:56:27;99838.59;;;22.80;96.06
43824;BME280;29470;53.550;9.926;2023-07-31T15:01:30;99845.16;;;22.13;98.96
43824;BME280;29470;53.550;9.926;2023-07-31T15:06:33;99858.72;;;22.64;96.70
43824;BME280;29470;53.550;9.926;2023-07-31T15:11:37;99859.69;;;22.80;96.86
43824;BME280;29470;53.550;9.926;2023-07-31T15:16:40;99857.13;;;23.03;94.93
43824;BME280;29470;53.550;9.926;2023-07-31T15:21:43;99848.31;;;22.98;93.63
43824;BME280;29470;53.550;9.926;2023-07-31T15:26:55;99840.31;;;22.67;94.63
43824;BME280;29470;53.550;9.926;2023-07-31T15:32:00;99850.84;;;22.67;95.98
43824;BME280;29470;53.550;9.926;2023-07-31T15:37:04;99843.06;;;22.92;95.31
43824;BME280;29470;53.550;9.926;2023-07-31T15:42:58;99836.88;;;22.84;93.78
43824;BME280;29470;53.550;9.926;2023-07-31T15:48:30;99834.97;;;22.55;94.60
43824;BME280;29470;53.550;9.926;2023-07-31T15:53:32;99816.69;;;22.95;93.45
43824;BME280;29470;53.550;9.926;2023-07-31T15:58:37;99811.25;;;22.56;93.62
43824;BME280;29470;53.550;9.926;2023-07-31T16:03:39;99818.88;;;22.17;97.92
43824;BME280;29470;53.550;9.926;2023-07-31T16:08:42;99818.03;;;22.21;97.80
43824;BME280;29470;53.550;9.926;2023-07-31T16:13:47;99827.81;;;21.36;100.00
43824;BME280;29470;53.550;9.926;2023-07-31T16:18:50;99838.00;;;21.90;100.00
43824;BME280;29470;53.550;9.926;2023-07-31T16:23:52;99845.13;;;22.03;100.00
43824;BME280;29470;53.550;9.926;2023-07-31T16:28:57;99843.59;;;22.36;98.01
43824;BME280;29470;53.550;9.926;2023-07-31T16:33:59;99856.53;;;22.04;99.55
43824;BME280;29470;53.550;9.926;2023-07-31T16:39:02;99850.56;;;22.31;97.16
43824;BME280;29470;53.550;9.926;2023-07-31T16:44:10;99857.56;;;22.25;99.78
43824;BME280;29470;53.550;9.926;2023-07-31T16:49:17;99851.28;;;22.08;97.86
43824;BME280;29470;53.550;9.926;2023-07-31T16:54:20;99853.16;;;22.20;97.68
43824;BME280;29470;53.550;9.926;2023-07-31T16:59:24;99832.19;;;22.36;95.43
43824;BME280;29470;53.550;9.926;2023-07-31T17:04:27;99838.53;;;22.66;96.16
43824;BME280;29470;53.550;9.926;2023-07-31T17:09:33;99846.38;;;22.54;97.29
43824;BME280;29470;53.550;9.926;2023-07-31T17:14:37;99840.97;;;22.38;96.51
43824;BME280;29470;53.550;9.926;2023-07-31T17:19:40;99836.03;;;22.95;93.31
43824;BME280;29470;53.550;9.926;2023-07-31T17:24:43;99834.25;;;22.88;93.58
43824;BME280;29470;53.550;9.926;2023-07-31T17:29:48;99821.09;;;22.96;93.97
43824;BME280;29470;53.550;9.926;2023-07-31T17:34:51;99823.75;;;23.04;93.69
43824;BME280;29470;53.550;9.926;2023-07-31T17:39:53;99808.81;;;23.14;92.07
43824;BME280;29470;53.550;9.926;2023-07-31T17:44:57;99820.19;;;22.92;91.76
43824;BME280;29470;53.550;9.926;2023-07-31T17:50:00;99814.09;;;23.10;91.46
43824;BME280;29470;53.550;9.926;2023-07-31T17:55:04;99811.41;;;22.92;92.24
43824;BME280;29470;53.550;9.926;2023-07-31T18:00:11;99816.69;;;22.98;93.25
43824;BME280;29470;53.550;9.926;2023-07-31T18:05:15;99811.38;;;22.84;94.12
43824;BME280;29470;53.550;9.926;2023-07-31T18:10:17;99811.28;;;22.65;94.60
43824;BME280;29470;53.550;9.926;2023-07-31T18:15:22;99813.06;;;22.68;96.10
43824;BME280;29470;53.550;9.926;2023-07-31T18:20:25;99807.81;;;22.71;95.44
43824;BME280;29470;53.550;9.926;2023-07-31T18:25:28;99806.06;;;22.73;96.28
43824;BME280;29470;53.550;9.926;2023-07-31T18:30:32;99789.19;;;22.43;97.03
43824;BME280;29470;53.550;9.926;2023-07-31T18:35:37;99788.03;;;21.98;100.00
43824;BME280;29470;53.550;9.926;2023-07-31T18:40:40;99805.50;;;21.89;100.00
43824;BME280;29470;53.550;9.926;2023-07-31T18:45:44;99800.38;;;22.05;99.62
43824;BME280;29470;53.550;9.926;2023-07-31T18:50:47;99769.97;;;22.58;96.68
43824;BME280;29470;53.550;9.926;2023-07-31T18:55:53;99771.72;;;22.56;95.71
43824;BME280;29470;53.550;9.926;2023-07-31T19:01:00;99764.53;;;22.29;96.32
43824;BME280;29470;53.550;9.926;2023-07-31T19:06:04;99767.31;;;22.50;95.72
43824;BME280;29470;53.550;9.926;2023-07-31T19:11:07;99751.56;;;22.64;92.10
43824;BME280;29470;53.550;9.926;2023-07-31T19:16:19;99763.63;;;22.24;95.75
43824;BME280;29470;53.550;9.926;2023-07-31T19:21:22;99756.59;;;22.27;95.22
43824;BME280;29470;53.550;9.926;2023-07-31T19:26:25;99748.59;;;22.07;97.22
43824;BME280;29470;53.550;9.926;2023-07-31T19:31:29;99741.66;;;22.18;97.07
43824;BME280;29470;53.550;9.926;2023-07-31T19:36:32;99743.47;;;22.29;96.94
43824;BME280;29470;53.550;9.926;2023-07-31T19:41:35;99735.59;;;22.35;94.75
43824;BME280;29470;53.550;9.926;2023-07-31T19:46:47;99745.94;;;21.99;98.13
43824;BME280;29470;53.550;9.926;2023-07-31T19:51:53;99742.50;;;22.19;95.52
43824;BME280;29470;53.550;9.926;2023-07-31T19:56:57;99741.38;;;21.78;98.46
43824;BME280;29470;53.550;9.926;2023-07-31T20:02:02;99738.00;;;21.93;98.01
43824;BME280;29470;53.550;9.926;2023-07-31T20:07:07;99730.16;;;22.04;97.71
43824;BME280;29470;53.550;9.926;2023-07-31T20:12:10;99722.31;;;22.13;97.55
43824;BME280;29470;53.550;9.926;2023-07-31T20:17:14;99711.81;;;22.21;96.12
43824;BME280;29470;53.550;9.926;2023-07-31T20:22:17;99724.06;;;22.14;97.11
43824;BME280;29470;53.550;9.926;2023-07-31T20:27:21;99705.56;;;22.00;97.39
43824;BME280;29470;53.550;9.926;2023-07-31T20:32:25;99689.69;;;21.85;97.66
43824;BME280;29470;53.550;9.926;2023-07-31T20:37:28;99671.22;;;21.78;98.79
43824;BME280;29470;53.550;9.926;2023-07-31T20:42:31;99667.63;;;21.64;100.00
43824;BME280;29470;53.550;9.926;2023-07-31T20:47:35;99660.78;;;21.99;97.28
43824;BME280;29470;53.550;9.926;2023-07-31T20:52:39;99656.41;;;21.93;95.87
43824;BME280;29470;53.550;9.926;2023-07-31T20:57:42;99652.00;;;21.93;97.40
43824;BME280;29470;53.550;9.926;2023-07-31T21:02:46;99631.66;;;21.68;97.93
43824;BME280;29470;53.550;9.926;2023-07-31T21:07:49;99627.09;;;21.45;99.48
43824;BME280;29470;53.550;9.926;2023-07-31T21:12:52;99617.56;;;21.58;98.15
43824;BME280;29470;53.550;9.926;2023-07-31T21:17:57;99600.84;;;21.49;97.91
43824;BME280;29470;53.550;9.926;2023-07-31T21:23:00;99620.78;;;21.21;100.00
43824;BME280;29470;53.550;9.926;2023-07-31T21:28:07;99599.91;;;21.41;100.00
43824;BME280;29470;53.550;9.926;2023-07-31T21:33:13;99595.44;;;21.32;100.00
43824;BME280;29470;53.550;9.926;2023-07-31T21:38:16;99592.22;;;21.71;97.80
43824;BME280;29470;53.550;9.926;2023-07-31T21:43:19;99578.88;;;21.43;99.27
43824;BME280;29470;53.550;9.926;2023-07-31T21:48:23;99567.44;;;21.36;99.40
43824;BME280;29470;53.550;9.926;2023-07-31T21:53:26;99557.69;;;21.21;100.00
43824;BME280;29470;53.550;9.926;2023-07-31T21:58:29;99537.72;;;21.54;98.00
43824;BME280;29470;53.550;9.926;2023-07-31T22:03:33;99518.22;;;21.13;98.12
43824;BME280;29470;53.550;9.926;2023-07-31T22:08:37;99508.66;;;21.28;96.79
43824;BME280;29470;53.550;9.926;2023-07-31T22:13:40;99502.38;;;20.99;95.57
43824;BME280;29470;53.550;9.926;2023-07-31T22:18:44;99534.59;;;20.78;99.47
43824;BME280;29470;53.550;9.926;2023-07-31T22:23:47;99511.06;;;20.92;98.72
43824;BME280;29470;53.550;9.926;2023-07-31T22:28:50;99496.88;;;20.71;99.27
43824;BME280;29470;53.550;9.926;2023-07-31T22:33:54;99479.63;;;21.09;98.63
43824;BME280;29470;53.550;9.926;2023-07-31T22:38:57;99460.00;;;20.62;100.00
43824;BME280;29470;53.550;9.926;2023-07-31T22:44:01;99467.22;;;20.85;100.00
43824;BME280;29470;53.550;9.926;2023-07-31T22:49:05;99442.91;;;21.29;98.25
43824;BME280;29470;53.550;9.926;2023-07-31T22:54:08;99446.41;;;21.21;98.77
43824;BME280;29470;53.550;9.926;2023-07-31T22:59:10;99435.09;;;21.45;98.73
43824;BME280;29470;53.550;9.926;2023-07-31T23:04:15;99442.81;;;21.09;100.00
43824;BME280;29470;53.550;9.926;2023-07-31T23:09:17;99430.63;;;21.16;100.00
43824;BME280;29470;53.550;9.926;2023-07-31T23:14:20;99420.13;;;21.27;99.46
43824;BME280;29470;53.550;9.926;2023-07-31T23:19:24;99407.19;;;21.76;97.62
43824;BME280;29470;53.550;9.926;2023-07-31T23:24:27;99414.81;;;21.14;100.00
43824;BME280;29470;53.550;9.926;2023-07-31T23:29:30;99406.16;;;21.37;99.14
43824;BME280;29470;53.550;9.926;2023-07-31T23:34:34;99406.06;;;21.23;99.14
43824;BME280;29470;53.550;9.926;2023-07-31T23:39:39;99409.25;;;20.63;100.00
43824;BME280;29470;53.550;9.926;2023-07-31T23:44:42;99426.94;;;20.86;100.00
43824;BME280;29470;53.550;9.926;2023-07-31T23:49:52;99406.00;;;21.03;100.00
43824;BME280;29470;53.550;9.926;2023-07-31T23:54:55;99414.66;;;20.82;100.00
43824;BME280;29470;53.550;9.926;2023-07-31T23:59:58;99411.28;;;21.08;100.00
